sensor_id;sensor_type;location;lat;lon;timestamp;P1;durP1;ratioP1;P2;durP2;ratioP2
20480;SDS011;10399;50.754;3.366;2022-11-15T00:01:14;27.52;;;16.90;;
20480;SDS011;10399;50.754;3.366;2022-11-15T00:03:43;28.48;;;18.02;;
20480;SDS011;10399;50.754;3.366;2022-11-15T00:06:10;30.95;;;17.88;;
20480;SDS011;10399;50.754;3.366;2022-11-15T00:08:37;29.85;;;18.33;;
20480;SDS011;10399;50.754;3.366;2022-11-15T00:11:04;30.30;;;17.42;;
20480;SDS011;10399;50.754;3.366;2022-11-15T00:13:31;26.35;;;16.08;;
20480;SDS011;10399;50.754;3.366;2022-11-15T00:15:59;30.00;;;15.32;;
20480;SDS011;10399;50.754;3.366;2022-11-15T00:18:28;33.95;;;16.20;;
20480;SDS011;10399;50.754;3.366;2022-11-15T00:21:02;29.40;;;16.50;;
20480;SDS011;10399;50.754;3.366;2022-11-15T00:23:32;25.45;;;15.48;;
20480;SDS011;10399;50.754;3.366;2022-11-15T00:25:59;23.52;;;13.63;;
20480;SDS011;10399;50.754;3.366;2022-11-15T00:28:26;27.98;;;15.52;;
20480;SDS011;10399;50.754;3.366;2022-11-15T00:30:54;25.45;;;14.52;;
20480;SDS011;10399;50.754;3.366;2022-11-15T00:33:27;29.75;;;15.18;;
20480;SDS011;10399;50.754;3.366;2022-11-15T00:36:05;26.08;;;15.18;;
20480;SDS011;10399;50.754;3.366;2022-11-15T00:38:35;26.80;;;14.20;;
20480;SDS011;10399;50.754;3.366;2022-11-15T00:41:04;26.25;;;13.80;;
20480;SDS011;10399;50.754;3.366;2022-11-15T00:43:35;19.33;;;12.70;;
20480;SDS011;10399;50.754;3.366;2022-11-15T00:46:02;25.65;;;13.60;;
20480;SDS011;10399;50.754;3.366;2022-11-15T00:48:29;21.60;;;12.55;;
20480;SDS011;10399;50.754;3.366;2022-11-15T00:50:57;21.55;;;11.40;;
20480;SDS011;10399;50.754;3.366;2022-11-15T00:53:25;21.05;;;11.63;;
20480;SDS011;10399;50.754;3.366;2022-11-15T00:55:52;12.65;;;6.80;;
20480;SDS011;10399;50.754;3.366;2022-11-15T00:58:19;20.83;;;11.32;;
20480;SDS011;10399;50.754;3.366;2022-11-15T01:00:46;20.55;;;10.52;;
20480;SDS011;10399;50.754;3.366;2022-11-15T01:03:14;18.40;;;10.32;;
20480;SDS011;10399;50.754;3.366;2022-11-15T01:05:41;16.70;;;9.43;;
20480;SDS011;10399;50.754;3.366;2022-11-15T01:08:14;17.92;;;10.00;;
20480;SDS011;10399;50.754;3.366;2022-11-15T01:10:42;14.15;;;9.70;;
20480;SDS011;10399;50.754;3.366;2022-11-15T01:13:09;21.80;;;10.57;;
20480;SDS011;10399;50.754;3.366;2022-11-15T01:15:38;17.52;;;10.02;;
20480;SDS011;10399;50.754;3.366;2022-11-15T01:18:07;19.25;;;10.20;;
20480;SDS011;10399;50.754;3.366;2022-11-15T01:20:34;17.63;;;10.05;;
20480;SDS011;10399;50.754;3.366;2022-11-15T01:23:05;20.40;;;9.90;;
20480;SDS011;10399;50.754;3.366;2022-11-15T01:25:32;17.73;;;10.10;;
20480;SDS011;10399;50.754;3.366;2022-11-15T01:27:59;20.60;;;9.45;;
20480;SDS011;10399;50.754;3.366;2022-11-15T01:30:25;24.85;;;9.93;;
20480;SDS011;10399;50.754;3.366;2022-11-15T01:32:53;17.20;;;9.65;;
20480;SDS011;10399;50.754;3.366;2022-11-15T01:35:20;21.55;;;10.38;;
20480;SDS011;10399;50.754;3.366;2022-11-15T01:37:47;17.52;;;8.93;;
20480;SDS011;10399;50.754;3.366;2022-11-15T01:40:13;16.08;;;8.10;;
20480;SDS011;10399;50.754;3.366;2022-11-15T01:42:41;19.63;;;8.23;;
20480;SDS011;10399;50.754;3.366;2022-11-15T01:45:12;14.95;;;7.55;;
20480;SDS011;10399;50.754;3.366;2022-11-15T01:47:42;18.83;;;8.70;;
20480;SDS011;10399;50.754;3.366;2022-11-15T01:50:16;13.77;;;7.72;;
20480;SDS011;10399;50.754;3.366;2022-11-15T01:52:47;13.57;;;7.82;;
20480;SDS011;10399;50.754;3.366;2022-11-15T01:55:21;14.75;;;7.05;;
20480;SDS011;10399;50.754;3.366;2022-11-15T01:57:52;16.42;;;7.70;;
20480;SDS011;10399;50.754;3.366;2022-11-15T02:00:23;16.13;;;6.70;;
20480;SDS011;10399;50.754;3.366;2022-11-15T02:02:50;14.73;;;6.78;;
20480;SDS011;10399;50.754;3.366;2022-11-15T02:05:17;15.95;;;6.65;;
20480;SDS011;10399;50.754;3.366;2022-11-15T02:07:44;15.35;;;6.10;;
20480;SDS011;10399;50.754;3.366;2022-11-15T02:10:19;15.10;;;6.13;;
20480;SDS011;10399;50.754;3.366;2022-11-15T02:12:48;12.73;;;5.28;;
20480;SDS011;10399;50.754;3.366;2022-11-15T02:15:16;10.75;;;5.88;;
20480;SDS011;10399;50.754;3.366;2022-11-15T02:20:30;10.40;;;5.30;;
20480;SDS011;10399;50.754;3.366;2022-11-15T02:29:02;12.80;;;5.00;;
20480;SDS011;10399;50.754;3.366;2022-11-15T02:39:55;10.48;;;4.60;;
20480;SDS011;10399;50.754;3.366;2022-11-15T02:42:42;12.80;;;5.20;;
20480;SDS011;10399;50.754;3.366;2022-11-15T02:45:35;11.15;;;4.63;;
20480;SDS011;10399;50.754;3.366;2022-11-15T02:48:07;11.30;;;5.55;;
20480;SDS011;10399;50.754;3.366;2022-11-15T02:50:37;12.13;;;4.80;;
20480;SDS011;10399;50.754;3.366;2022-11-15T02:53:05;12.63;;;5.38;;
20480;SDS011;10399;50.754;3.366;2022-11-15T02:55:35;7.95;;;5.15;;
20480;SDS011;10399;50.754;3.366;2022-11-15T03:00:41;17.73;;;5.97;;
20480;SDS011;10399;50.754;3.366;2022-11-15T03:11:40;12.95;;;6.65;;
20480;SDS011;10399;50.754;3.366;2022-11-15T03:14:34;12.63;;;6.32;;
20480;SDS011;10399;50.754;3.366;2022-11-15T03:17:11;17.02;;;7.43;;
20480;SDS011;10399;50.754;3.366;2022-11-15T03:19:59;15.98;;;7.43;;
20480;SDS011;10399;50.754;3.366;2022-11-15T03:22:29;16.90;;;7.35;;
20480;SDS011;10399;50.754;3.366;2022-11-15T03:25:01;22.55;;;7.45;;
20480;SDS011;10399;50.754;3.366;2022-11-15T03:27:35;18.05;;;6.82;;
20480;SDS011;10399;50.754;3.366;2022-11-15T03:30:07;19.27;;;7.32;;
20480;SDS011;10399;50.754;3.366;2022-11-15T03:32:38;14.50;;;7.00;;
20480;SDS011;10399;50.754;3.366;2022-11-15T03:35:12;13.65;;;6.22;;
20480;SDS011;10399;50.754;3.366;2022-11-15T03:38:06;17.40;;;7.10;;
20480;SDS011;10399;50.754;3.366;2022-11-15T03:41:04;15.85;;;6.88;;
20480;SDS011;10399;50.754;3.366;2022-11-15T03:46:23;12.48;;;5.43;;
20480;SDS011;10399;50.754;3.366;2022-11-15T03:49:00;10.73;;;6.15;;
20480;SDS011;10399;50.754;3.366;2022-11-15T03:51:42;13.60;;;5.50;;
20480;SDS011;10399;50.754;3.366;2022-11-15T03:54:10;18.88;;;5.32;;
20480;SDS011;10399;50.754;3.366;2022-11-15T03:56:39;11.38;;;4.30;;
20480;SDS011;10399;50.754;3.366;2022-11-15T03:59:06;10.98;;;5.20;;
20480;SDS011;10399;50.754;3.366;2022-11-15T04:01:36;13.70;;;4.90;;
20480;SDS011;10399;50.754;3.366;2022-11-15T04:04:06;13.50;;;4.47;;
20480;SDS011;10399;50.754;3.366;2022-11-15T04:06:37;12.27;;;5.57;;
20480;SDS011;10399;50.754;3.366;2022-11-15T04:09:04;15.02;;;5.05;;
20480;SDS011;10399;50.754;3.366;2022-11-15T04:11:33;12.82;;;4.88;;
20480;SDS011;10399;50.754;3.366;2022-11-15T04:14:01;14.30;;;5.03;;
20480;SDS011;10399;50.754;3.366;2022-11-15T04:16:28;8.73;;;4.80;;
20480;SDS011;10399;50.754;3.366;2022-11-15T04:18:55;10.77;;;4.97;;
20480;SDS011;10399;50.754;3.366;2022-11-15T04:21:41;8.63;;;4.63;;
20480;SDS011;10399;50.754;3.366;2022-11-15T04:24:27;7.90;;;5.10;;
20480;SDS011;10399;50.754;3.366;2022-11-15T04:26:54;16.38;;;4.55;;
20480;SDS011;10399;50.754;3.366;2022-11-15T04:29:27;12.15;;;4.53;;
20480;SDS011;10399;50.754;3.366;2022-11-15T04:32:02;7.72;;;4.43;;
20480;SDS011;10399;50.754;3.366;2022-11-15T04:34:33;9.90;;;4.35;;
20480;SDS011;10399;50.754;3.366;2022-11-15T04:37:03;13.60;;;4.45;;
20480;SDS011;10399;50.754;3.366;2022-11-15T04:39:43;11.93;;;4.15;;
20480;SDS011;10399;50.754;3.366;2022-11-15T04:42:10;16.50;;;4.15;;
20480;SDS011;10399;50.754;3.366;2022-11-15T04:44:38;10.40;;;3.90;;
20480;SDS011;10399;50.754;3.366;2022-11-15T04:47:09;10.80;;;4.15;;
20480;SDS011;10399;50.754;3.366;2022-11-15T04:49:40;7.45;;;3.80;;
20480;SDS011;10399;50.754;3.366;2022-11-15T04:52:10;8.93;;;3.40;;
20480;SDS011;10399;50.754;3.366;2022-11-15T04:54:46;10.88;;;3.58;;
20480;SDS011;10399;50.754;3.366;2022-11-15T04:57:13;11.40;;;3.75;;
20480;SDS011;10399;50.754;3.366;2022-11-15T04:59:41;6.18;;;3.65;;
20480;SDS011;10399;50.754;3.366;2022-11-15T05:02:09;9.18;;;4.32;;
20480;SDS011;10399;50.754;3.366;2022-11-15T05:04:36;8.40;;;3.88;;
20480;SDS011;10399;50.754;3.366;2022-11-15T05:07:03;8.98;;;3.63;;
20480;SDS011;10399;50.754;3.366;2022-11-15T05:09:30;9.60;;;4.70;;
20480;SDS011;10399;50.754;3.366;2022-11-15T05:11:57;11.77;;;4.18;;
20480;SDS011;10399;50.754;3.366;2022-11-15T05:14:24;9.02;;;3.88;;
20480;SDS011;10399;50.754;3.366;2022-11-15T05:16:51;8.75;;;4.13;;
20480;SDS011;10399;50.754;3.366;2022-11-15T05:19:19;9.13;;;4.20;;
20480;SDS011;10399;50.754;3.366;2022-11-15T05:21:46;8.57;;;4.28;;
20480;SDS011;10399;50.754;3.366;2022-11-15T05:24:14;13.82;;;5.10;;
20480;SDS011;10399;50.754;3.366;2022-11-15T05:26:41;11.50;;;5.38;;
20480;SDS011;10399;50.754;3.366;2022-11-15T05:29:12;14.35;;;4.22;;
20480;SDS011;10399;50.754;3.366;2022-11-15T05:31:39;11.95;;;5.03;;
20480;SDS011;10399;50.754;3.366;2022-11-15T05:34:08;15.50;;;5.70;;
20480;SDS011;10399;50.754;3.366;2022-11-15T05:36:43;15.77;;;5.95;;
20480;SDS011;10399;50.754;3.366;2022-11-15T05:39:13;12.82;;;5.05;;
20480;SDS011;10399;50.754;3.366;2022-11-15T05:41:43;14.80;;;5.40;;
20480;SDS011;10399;50.754;3.366;2022-11-15T05:44:14;11.68;;;6.05;;
20480;SDS011;10399;50.754;3.366;2022-11-15T05:46:44;13.60;;;6.40;;
20480;SDS011;10399;50.754;3.366;2022-11-15T05:49:15;13.15;;;6.15;;
20480;SDS011;10399;50.754;3.366;2022-11-15T05:51:49;13.88;;;6.72;;
20480;SDS011;10399;50.754;3.366;2022-11-15T05:54:17;14.02;;;8.35;;
20480;SDS011;10399;50.754;3.366;2022-11-15T05:56:46;15.05;;;8.27;;
20480;SDS011;10399;50.754;3.366;2022-11-15T05:59:14;18.40;;;9.20;;
20480;SDS011;10399;50.754;3.366;2022-11-15T06:01:41;17.25;;;8.30;;
20480;SDS011;10399;50.754;3.366;2022-11-15T06:04:09;15.10;;;8.93;;
20480;SDS011;10399;50.754;3.366;2022-11-15T06:06:37;17.92;;;9.73;;
20480;SDS011;10399;50.754;3.366;2022-11-15T06:09:08;16.67;;;8.57;;
20480;SDS011;10399;50.754;3.366;2022-11-15T06:11:37;15.75;;;8.40;;
20480;SDS011;10399;50.754;3.366;2022-11-15T06:14:05;17.08;;;7.63;;
20480;SDS011;10399;50.754;3.366;2022-11-15T06:16:32;16.90;;;8.13;;
20480;SDS011;10399;50.754;3.366;2022-11-15T06:19:05;17.25;;;9.35;;
20480;SDS011;10399;50.754;3.366;2022-11-15T06:21:33;16.75;;;8.93;;
20480;SDS011;10399;50.754;3.366;2022-11-15T06:24:01;15.13;;;8.68;;
20480;SDS011;10399;50.754;3.366;2022-11-15T06:26:34;18.85;;;9.57;;
20480;SDS011;10399;50.754;3.366;2022-11-15T06:29:05;15.65;;;9.43;;
20480;SDS011;10399;50.754;3.366;2022-11-15T06:31:37;13.23;;;8.60;;
20480;SDS011;10399;50.754;3.366;2022-11-15T06:34:04;14.32;;;8.90;;
20480;SDS011;10399;50.754;3.366;2022-11-15T06:36:35;21.98;;;9.70;;
20480;SDS011;10399;50.754;3.366;2022-11-15T06:39:03;18.20;;;9.90;;
20480;SDS011;10399;50.754;3.366;2022-11-15T06:41:36;18.38;;;9.32;;
20480;SDS011;10399;50.754;3.366;2022-11-15T06:44:08;18.98;;;9.10;;
20480;SDS011;10399;50.754;3.366;2022-11-15T06:46:38;17.70;;;9.27;;
20480;SDS011;10399;50.754;3.366;2022-11-15T06:49:08;14.23;;;8.90;;
20480;SDS011;10399;50.754;3.366;2022-11-15T06:51:41;19.13;;;10.20;;
20480;SDS011;10399;50.754;3.366;2022-11-15T06:54:12;15.00;;;8.82;;
20480;SDS011;10399;50.754;3.366;2022-11-15T06:56:42;21.92;;;9.63;;
20480;SDS011;10399;50.754;3.366;2022-11-15T06:59:08;19.50;;;9.48;;
20480;SDS011;10399;50.754;3.366;2022-11-15T07:01:35;13.75;;;8.68;;
20480;SDS011;10399;50.754;3.366;2022-11-15T07:04:03;16.48;;;8.65;;
20480;SDS011;10399;50.754;3.366;2022-11-15T07:06:30;12.90;;;7.90;;
20480;SDS011;10399;50.754;3.366;2022-11-15T07:08:58;14.57;;;7.15;;
20480;SDS011;10399;50.754;3.366;2022-11-15T07:11:25;21.33;;;7.65;;
20480;SDS011;10399;50.754;3.366;2022-11-15T07:13:52;12.60;;;6.93;;
20480;SDS011;10399;50.754;3.366;2022-11-15T07:16:19;17.08;;;8.45;;
20480;SDS011;10399;50.754;3.366;2022-11-15T07:18:46;26.48;;;11.18;;
20480;SDS011;10399;50.754;3.366;2022-11-15T07:21:13;33.65;;;12.48;;
20480;SDS011;10399;50.754;3.366;2022-11-15T07:23:40;26.67;;;9.73;;
20480;SDS011;10399;50.754;3.366;2022-11-15T07:26:07;31.17;;;9.15;;
20480;SDS011;10399;50.754;3.366;2022-11-15T07:28:35;27.05;;;9.40;;
20480;SDS011;10399;50.754;3.366;2022-11-15T07:31:03;29.27;;;10.07;;
20480;SDS011;10399;50.754;3.366;2022-11-15T07:33:31;29.20;;;10.95;;
20480;SDS011;10399;50.754;3.366;2022-11-15T07:35:59;30.98;;;9.38;;
20480;SDS011;10399;50.754;3.366;2022-11-15T07:38:30;29.90;;;8.10;;
20480;SDS011;10399;50.754;3.366;2022-11-15T07:41:05;18.48;;;7.13;;
20480;SDS011;10399;50.754;3.366;2022-11-15T07:43:32;18.63;;;6.35;;
20480;SDS011;10399;50.754;3.366;2022-11-15T07:46:04;17.63;;;6.88;;
20480;SDS011;10399;50.754;3.366;2022-11-15T07:48:32;16.50;;;5.05;;
20480;SDS011;10399;50.754;3.366;2022-11-15T07:51:12;13.10;;;5.22;;
20480;SDS011;10399;50.754;3.366;2022-11-15T07:53:42;14.27;;;6.50;;
20480;SDS011;10399;50.754;3.366;2022-11-15T07:56:09;11.23;;;4.85;;
20480;SDS011;10399;50.754;3.366;2022-11-15T07:58:37;14.18;;;4.50;;
20480;SDS011;10399;50.754;3.366;2022-11-15T08:01:05;14.23;;;4.65;;
20480;SDS011;10399;50.754;3.366;2022-11-15T08:03:33;20.55;;;5.50;;
20480;SDS011;10399;50.754;3.366;2022-11-15T08:06:01;15.80;;;4.45;;
20480;SDS011;10399;50.754;3.366;2022-11-15T08:08:28;9.23;;;3.92;;
20480;SDS011;10399;50.754;3.366;2022-11-15T08:10:56;13.50;;;3.90;;
20480;SDS011;10399;50.754;3.366;2022-11-15T08:13:24;10.88;;;3.58;;
20480;SDS011;10399;50.754;3.366;2022-11-15T08:15:51;5.50;;;3.28;;
20480;SDS011;10399;50.754;3.366;2022-11-15T08:18:23;12.75;;;3.75;;
20480;SDS011;10399;50.754;3.366;2022-11-15T08:20:49;13.93;;;3.80;;
20480;SDS011;10399;50.754;3.366;2022-11-15T08:23:17;12.88;;;3.90;;
20480;SDS011;10399;50.754;3.366;2022-11-15T08:25:44;11.15;;;3.85;;
20480;SDS011;10399;50.754;3.366;2022-11-15T08:28:11;11.32;;;3.13;;
20480;SDS011;10399;50.754;3.366;2022-11-15T08:30:39;13.43;;;3.63;;
20480;SDS011;10399;50.754;3.366;2022-11-15T08:33:12;12.85;;;3.97;;
20480;SDS011;10399;50.754;3.366;2022-11-15T08:35:40;11.52;;;4.85;;
20480;SDS011;10399;50.754;3.366;2022-11-15T08:38:08;10.60;;;5.22;;
20480;SDS011;10399;50.754;3.366;2022-11-15T08:40:36;11.13;;;3.83;;
20480;SDS011;10399;50.754;3.366;2022-11-15T08:43:03;9.40;;;3.90;;
20480;SDS011;10399;50.754;3.366;2022-11-15T08:45:31;10.52;;;3.65;;
20480;SDS011;10399;50.754;3.366;2022-11-15T08:48:00;11.65;;;3.47;;
20480;SDS011;10399;50.754;3.366;2022-11-15T08:50:28;7.00;;;2.95;;
20480;SDS011;10399;50.754;3.366;2022-11-15T08:52:56;10.88;;;3.13;;
20480;SDS011;10399;50.754;3.366;2022-11-15T08:55:23;10.32;;;3.05;;
20480;SDS011;10399;50.754;3.366;2022-11-15T08:57:51;11.77;;;2.88;;
20480;SDS011;10399;50.754;3.366;2022-11-15T09:00:18;13.23;;;3.17;;
20480;SDS011;10399;50.754;3.366;2022-11-15T09:02:46;11.20;;;3.05;;
20480;SDS011;10399;50.754;3.366;2022-11-15T09:05:13;8.77;;;2.40;;
20480;SDS011;10399;50.754;3.366;2022-11-15T09:07:41;7.65;;;2.20;;
20480;SDS011;10399;50.754;3.366;2022-11-15T09:10:09;10.98;;;2.67;;
20480;SDS011;10399;50.754;3.366;2022-11-15T09:12:36;9.23;;;3.30;;
20480;SDS011;10399;50.754;3.366;2022-11-15T09:15:04;11.57;;;2.70;;
20480;SDS011;10399;50.754;3.366;2022-11-15T09:17:31;12.23;;;3.58;;
20480;SDS011;10399;50.754;3.366;2022-11-15T09:19:58;11.30;;;2.65;;
20480;SDS011;10399;50.754;3.366;2022-11-15T09:22:25;10.68;;;2.67;;
20480;SDS011;10399;50.754;3.366;2022-11-15T09:24:52;8.85;;;2.40;;
20480;SDS011;10399;50.754;3.366;2022-11-15T09:27:19;11.80;;;3.05;;
20480;SDS011;10399;50.754;3.366;2022-11-15T09:29:46;10.52;;;2.47;;
20480;SDS011;10399;50.754;3.366;2022-11-15T09:32:13;6.70;;;2.05;;
20480;SDS011;10399;50.754;3.366;2022-11-15T09:34:40;10.93;;;2.13;;
20480;SDS011;10399;50.754;3.366;2022-11-15T09:37:07;9.95;;;2.60;;
20480;SDS011;10399;50.754;3.366;2022-11-15T09:39:34;12.80;;;2.70;;
20480;SDS011;10399;50.754;3.366;2022-11-15T09:42:17;8.75;;;2.60;;
20480;SDS011;10399;50.754;3.366;2022-11-15T09:49:53;10.98;;;3.08;;
20480;SDS011;10399;50.754;3.366;2022-11-15T09:52:23;12.23;;;3.00;;
20480;SDS011;10399;50.754;3.366;2022-11-15T09:54:51;17.02;;;3.17;;
20480;SDS011;10399;50.754;3.366;2022-11-15T09:57:24;11.57;;;2.38;;
20480;SDS011;10399;50.754;3.366;2022-11-15T10:03:13;13.68;;;2.38;;
20480;SDS011;10399;50.754;3.366;2022-11-15T10:05:53;11.85;;;3.22;;
20480;SDS011;10399;50.754;3.366;2022-11-15T10:11:14;10.82;;;2.17;;
20480;SDS011;10399;50.754;3.366;2022-11-15T10:14:20;13.30;;;2.10;;
20480;SDS011;10399;50.754;3.366;2022-11-15T10:19:38;13.30;;;2.38;;
20480;SDS011;10399;50.754;3.366;2022-11-15T10:25:17;10.48;;;2.65;;
20480;SDS011;10399;50.754;3.366;2022-11-15T10:27:51;24.45;;;3.03;;
20480;SDS011;10399;50.754;3.366;2022-11-15T10:30:28;11.80;;;2.15;;
20480;SDS011;10399;50.754;3.366;2022-11-15T10:33:17;16.45;;;2.15;;
20480;SDS011;10399;50.754;3.366;2022-11-15T10:46:28;16.02;;;2.58;;
20480;SDS011;10399;50.754;3.366;2022-11-15T10:49:20;11.75;;;2.30;;
20480;SDS011;10399;50.754;3.366;2022-11-15T10:51:48;6.68;;;1.88;;
20480;SDS011;10399;50.754;3.366;2022-11-15T10:57:11;7.13;;;1.42;;
20480;SDS011;10399;50.754;3.366;2022-11-15T10:59:58;8.90;;;1.65;;
20480;SDS011;10399;50.754;3.366;2022-11-15T11:05:06;7.28;;;1.70;;
20480;SDS011;10399;50.754;3.366;2022-11-15T11:10:51;8.65;;;1.70;;
20480;SDS011;10399;50.754;3.366;2022-11-15T11:19:24;9.43;;;1.95;;
20480;SDS011;10399;50.754;3.366;2022-11-15T11:32:53;7.80;;;1.83;;
20480;SDS011;10399;50.754;3.366;2022-11-15T12:00:21;15.10;;;2.03;;
20480;SDS011;10399;50.754;3.366;2022-11-15T12:02:55;7.63;;;2.28;;
20480;SDS011;10399;50.754;3.366;2022-11-15T12:05:42;8.07;;;1.95;;
20480;SDS011;10399;50.754;3.366;2022-11-15T12:08:24;3.78;;;1.33;;
20480;SDS011;10399;50.754;3.366;2022-11-15T12:11:14;6.05;;;2.13;;
20480;SDS011;10399;50.754;3.366;2022-11-15T12:14:04;11.32;;;2.05;;
20480;SDS011;10399;50.754;3.366;2022-11-15T12:16:39;9.02;;;2.60;;
20480;SDS011;10399;50.754;3.366;2022-11-15T12:19:08;8.05;;;2.08;;
20480;SDS011;10399;50.754;3.366;2022-11-15T12:21:38;7.13;;;2.08;;
20480;SDS011;10399;50.754;3.366;2022-11-15T12:24:26;10.88;;;2.45;;
20480;SDS011;10399;50.754;3.366;2022-11-15T12:27:00;11.73;;;2.42;;
20480;SDS011;10399;50.754;3.366;2022-11-15T12:29:40;6.13;;;1.85;;
20480;SDS011;10399;50.754;3.366;2022-11-15T12:32:18;6.90;;;2.40;;
20480;SDS011;10399;50.754;3.366;2022-11-15T12:35:00;13.50;;;2.42;;
20480;SDS011;10399;50.754;3.366;2022-11-15T12:43:01;7.70;;;1.70;;
20480;SDS011;10399;50.754;3.366;2022-11-15T12:45:32;7.97;;;1.92;;
20480;SDS011;10399;50.754;3.366;2022-11-15T12:48:44;6.32;;;2.15;;
20480;SDS011;10399;50.754;3.366;2022-11-15T12:58:56;9.00;;;2.13;;
20480;SDS011;10399;50.754;3.366;2022-11-15T13:06:43;5.00;;;1.80;;
20480;SDS011;10399;50.754;3.366;2022-11-15T13:12:48;10.27;;;2.30;;
20480;SDS011;10399;50.754;3.366;2022-11-15T13:30:36;5.65;;;1.95;;
20480;SDS011;10399;50.754;3.366;2022-11-15T13:33:08;6.15;;;2.33;;
20480;SDS011;10399;50.754;3.366;2022-11-15T13:35:47;13.52;;;4.65;;
20480;SDS011;10399;50.754;3.366;2022-11-15T13:38:30;6.88;;;1.90;;
20480;SDS011;10399;50.754;3.366;2022-11-15T13:41:09;3.78;;;1.90;;
20480;SDS011;10399;50.754;3.366;2022-11-15T13:43:45;3.50;;;1.77;;
20480;SDS011;10399;50.754;3.366;2022-11-15T13:46:16;4.45;;;1.50;;
20480;SDS011;10399;50.754;3.366;2022-11-15T13:48:47;2.50;;;1.42;;
20480;SDS011;10399;50.754;3.366;2022-11-15T13:54:25;7.85;;;1.48;;
20480;SDS011;10399;50.754;3.366;2022-11-15T13:57:19;1.98;;;1.70;;
20480;SDS011;10399;50.754;3.366;2022-11-15T13:59:52;6.70;;;2.38;;
20480;SDS011;10399;50.754;3.366;2022-11-15T14:02:32;3.63;;;1.60;;
20480;SDS011;10399;50.754;3.366;2022-11-15T14:07:31;5.15;;;1.85;;
20480;SDS011;10399;50.754;3.366;2022-11-15T14:10:25;2.78;;;1.63;;
20480;SDS011;10399;50.754;3.366;2022-11-15T14:12:56;4.50;;;2.03;;
20480;SDS011;10399;50.754;3.366;2022-11-15T14:18:00;5.95;;;2.50;;
20480;SDS011;10399;50.754;3.366;2022-11-15T14:23:03;8.48;;;2.58;;
20480;SDS011;10399;50.754;3.366;2022-11-15T14:25:33;4.63;;;2.22;;
20480;SDS011;10399;50.754;3.366;2022-11-15T14:30:58;5.55;;;2.38;;
20480;SDS011;10399;50.754;3.366;2022-11-15T14:33:35;4.60;;;2.30;;
20480;SDS011;10399;50.754;3.366;2022-11-15T14:36:11;8.45;;;3.85;;
20480;SDS011;10399;50.754;3.366;2022-11-15T14:38:42;5.22;;;2.47;;
20480;SDS011;10399;50.754;3.366;2022-11-15T14:41:12;7.32;;;2.92;;
20480;SDS011;10399;50.754;3.366;2022-11-15T14:43:50;6.75;;;2.58;;
20480;SDS011;10399;50.754;3.366;2022-11-15T14:46:18;6.55;;;3.20;;
20480;SDS011;10399;50.754;3.366;2022-11-15T14:48:45;6.43;;;3.28;;
20480;SDS011;10399;50.754;3.366;2022-11-15T14:51:13;6.85;;;2.90;;
20480;SDS011;10399;50.754;3.366;2022-11-15T14:53:42;6.78;;;3.33;;
20480;SDS011;10399;50.754;3.366;2022-11-15T14:56:11;6.13;;;3.15;;
20480;SDS011;10399;50.754;3.366;2022-11-15T14:58:38;6.63;;;3.70;;
20480;SDS011;10399;50.754;3.366;2022-11-15T15:01:10;5.05;;;3.85;;
20480;SDS011;10399;50.754;3.366;2022-11-15T15:03:49;5.75;;;3.40;;
20480;SDS011;10399;50.754;3.366;2022-11-15T15:06:18;9.18;;;3.47;;
20480;SDS011;10399;50.754;3.366;2022-11-15T15:08:45;7.20;;;3.50;;
20480;SDS011;10399;50.754;3.366;2022-11-15T15:11:16;5.10;;;3.45;;
20480;SDS011;10399;50.754;3.366;2022-11-15T15:13:51;3.58;;;2.83;;
20480;SDS011;10399;50.754;3.366;2022-11-15T15:16:19;4.25;;;2.88;;
20480;SDS011;10399;50.754;3.366;2022-11-15T15:18:46;9.45;;;3.20;;
20480;SDS011;10399;50.754;3.366;2022-11-15T15:21:18;5.00;;;3.15;;
20480;SDS011;10399;50.754;3.366;2022-11-15T15:23:50;4.47;;;3.13;;
20480;SDS011;10399;50.754;3.366;2022-11-15T15:26:20;4.03;;;3.25;;
20480;SDS011;10399;50.754;3.366;2022-11-15T15:28:47;5.05;;;2.80;;
20480;SDS011;10399;50.754;3.366;2022-11-15T15:31:18;7.18;;;3.28;;
20480;SDS011;10399;50.754;3.366;2022-11-15T15:33:45;4.75;;;2.97;;
20480;SDS011;10399;50.754;3.366;2022-11-15T15:36:13;7.72;;;3.53;;
20480;SDS011;10399;50.754;3.366;2022-11-15T15:38:43;5.15;;;3.15;;
20480;SDS011;10399;50.754;3.366;2022-11-15T15:41:15;4.55;;;2.75;;
20480;SDS011;10399;50.754;3.366;2022-11-15T15:43:43;3.53;;;2.90;;
20480;SDS011;10399;50.754;3.366;2022-11-15T15:46:14;6.07;;;3.40;;
20480;SDS011;10399;50.754;3.366;2022-11-15T15:48:42;5.43;;;3.15;;
20480;SDS011;10399;50.754;3.366;2022-11-15T15:51:10;4.32;;;3.13;;
20480;SDS011;10399;50.754;3.366;2022-11-15T15:53:45;4.90;;;2.83;;
20480;SDS011;10399;50.754;3.366;2022-11-15T15:56:12;4.90;;;3.05;;
20480;SDS011;10399;50.754;3.366;2022-11-15T15:58:39;3.85;;;2.75;;
20480;SDS011;10399;50.754;3.366;2022-11-15T16:01:07;5.32;;;3.22;;
20480;SDS011;10399;50.754;3.366;2022-11-15T16:03:34;4.65;;;3.35;;
20480;SDS011;10399;50.754;3.366;2022-11-15T16:06:01;5.57;;;3.03;;
20480;SDS011;10399;50.754;3.366;2022-11-15T16:08:30;6.22;;;2.78;;
20480;SDS011;10399;50.754;3.366;2022-11-15T16:11:17;5.32;;;3.15;;
20480;SDS011;10399;50.754;3.366;2022-11-15T16:13:44;5.55;;;2.88;;
20480;SDS011;10399;50.754;3.366;2022-11-15T16:16:12;9.38;;;3.78;;
20480;SDS011;10399;50.754;3.366;2022-11-15T16:18:40;6.57;;;3.08;;
20480;SDS011;10399;50.754;3.366;2022-11-15T16:21:07;8.60;;;4.43;;
20480;SDS011;10399;50.754;3.366;2022-11-15T16:23:35;4.07;;;3.22;;
20480;SDS011;10399;50.754;3.366;2022-11-15T16:26:02;4.97;;;3.58;;
20480;SDS011;10399;50.754;3.366;2022-11-15T16:28:54;8.23;;;4.05;;
20480;SDS011;10399;50.754;3.366;2022-11-15T16:31:21;5.35;;;4.05;;
20480;SDS011;10399;50.754;3.366;2022-11-15T16:33:47;6.32;;;3.58;;
20480;SDS011;10399;50.754;3.366;2022-11-15T16:36:22;5.75;;;3.50;;
20480;SDS011;10399;50.754;3.366;2022-11-15T16:38:56;8.00;;;3.95;;
20480;SDS011;10399;50.754;3.366;2022-11-15T16:41:23;13.38;;;10.35;;
20480;SDS011;10399;50.754;3.366;2022-11-15T16:43:51;8.00;;;4.72;;
20480;SDS011;10399;50.754;3.366;2022-11-15T16:46:18;6.32;;;3.67;;
20480;SDS011;10399;50.754;3.366;2022-11-15T16:48:50;10.00;;;5.63;;
20480;SDS011;10399;50.754;3.366;2022-11-15T16:51:21;16.10;;;11.40;;
20480;SDS011;10399;50.754;3.366;2022-11-15T16:53:49;8.65;;;4.18;;
20480;SDS011;10399;50.754;3.366;2022-11-15T16:56:26;5.82;;;3.97;;
20480;SDS011;10399;50.754;3.366;2022-11-15T16:58:55;5.07;;;3.75;;
20480;SDS011;10399;50.754;3.366;2022-11-15T17:01:25;9.70;;;6.95;;
20480;SDS011;10399;50.754;3.366;2022-11-15T17:04:12;7.50;;;5.07;;
20480;SDS011;10399;50.754;3.366;2022-11-15T17:06:39;6.32;;;4.18;;
20480;SDS011;10399;50.754;3.366;2022-11-15T17:09:12;12.10;;;5.25;;
20480;SDS011;10399;50.754;3.366;2022-11-15T17:11:40;6.47;;;4.00;;
20480;SDS011;10399;50.754;3.366;2022-11-15T17:14:08;8.68;;;4.80;;
20480;SDS011;10399;50.754;3.366;2022-11-15T17:16:36;6.32;;;4.20;;
20480;SDS011;10399;50.754;3.366;2022-11-15T17:19:11;5.38;;;3.95;;
20480;SDS011;10399;50.754;3.366;2022-11-15T17:21:41;6.95;;;4.25;;
20480;SDS011;10399;50.754;3.366;2022-11-15T17:24:08;7.18;;;4.80;;
20480;SDS011;10399;50.754;3.366;2022-11-15T17:26:36;5.85;;;4.35;;
20480;SDS011;10399;50.754;3.366;2022-11-15T17:29:06;4.82;;;3.80;;
20480;SDS011;10399;50.754;3.366;2022-11-15T17:31:34;9.07;;;4.63;;
20480;SDS011;10399;50.754;3.366;2022-11-15T17:34:02;7.47;;;4.72;;
20480;SDS011;10399;50.754;3.366;2022-11-15T17:36:30;6.43;;;5.05;;
20480;SDS011;10399;50.754;3.366;2022-11-15T17:38:58;5.03;;;4.05;;
20480;SDS011;10399;50.754;3.366;2022-11-15T17:41:26;6.47;;;4.15;;